createdAt,value
2017-06-15T00:00:28.626Z,0
2017-06-15T00:01:28.632Z,0
2017-06-15T00:02:28.717Z,0
2017-06-15T00:03:28.630Z,0
2017-06-15T00:04:28.726Z,0
2017-06-15T00:05:28.691Z,0
2017-06-15T00:06:28.691Z,0
2017-06-15T00:07:28.690Z,0
2017-06-15T00:08:28.690Z,0
2017-06-15T00:09:28.688Z,0
2017-06-15T00:10:28.688Z,0
2017-06-15T00:11:28.690Z,0
2017-06-15T00:12:28.690Z,0
2017-06-15T00:13:28.690Z,0
2017-06-15T00:14:28.694Z,0
2017-06-15T00:15:28.708Z,0
2017-06-15T00:16:28.708Z,0
2017-06-15T00:17:28.710Z,0
2017-06-15T00:18:28.707Z,0
2017-06-15T00:19:28.722Z,0
2017-06-15T00:20:28.720Z,0
2017-06-15T00:21:28.714Z,0
2017-06-15T00:22:28.710Z,0
2017-06-15T00:23:28.712Z,0
2017-06-15T00:24:28.713Z,0
2017-06-15T00:25:28.710Z,0
2017-06-15T00:26:28.727Z,0
2017-06-15T00:27:28.720Z,0
2017-06-15T00:28:28.734Z,0
2017-06-15T00:29:28.648Z,0
2017-06-15T00:30:28.645Z,0
2017-06-15T00:31:28.730Z,0
2017-06-15T00:32:28.730Z,0
2017-06-15T00:33:28.729Z,0
2017-06-15T00:34:28.724Z,0
2017-06-15T00:35:28.657Z,0
2017-06-15T00:36:28.653Z,0
2017-06-15T00:37:28.838Z,0
2017-06-15T00:38:28.651Z,0
2017-06-15T00:39:28.711Z,0
2017-06-15T00:40:28.746Z,0
2017-06-15T00:41:28.740Z,0
2017-06-15T00:42:28.655Z,0
2017-06-15T00:43:28.700Z,0
2017-06-15T00:44:28.735Z,0
2017-06-15T00:45:28.723Z,0
2017-06-15T00:46:28.712Z,0
2017-06-15T00:47:28.711Z,0
2017-06-15T00:48:28.712Z,0
2017-06-15T00:49:28.708Z,0
2017-06-15T00:50:28.711Z,0
2017-06-15T00:51:28.711Z,0
2017-06-15T00:52:28.716Z,0
2017-06-15T00:53:28.712Z,0
2017-06-15T00:54:28.717Z,0
2017-06-15T00:55:28.713Z,0
2017-06-15T00:56:28.730Z,0
2017-06-15T00:57:28.757Z,0
2017-06-15T00:58:28.735Z,0
2017-06-15T00:59:28.731Z,0
2017-06-15T01:00:28.660Z,0
2017-06-15T01:01:28.751Z,0
2017-06-15T01:02:28.731Z,0
2017-06-15T01:03:28.760Z,0
2017-06-15T01:04:28.664Z,0
2017-06-15T01:05:28.749Z,0
2017-06-15T01:06:28.671Z,0
2017-06-15T01:07:28.664Z,0
2017-06-15T01:08:28.755Z,0
2017-06-15T01:09:28.761Z,0
2017-06-15T01:10:28.674Z,0
2017-06-15T01:11:28.715Z,0
2017-06-15T01:12:28.743Z,0
2017-06-15T01:13:28.667Z,0
2017-06-15T01:14:28.739Z,0
2017-06-15T01:15:28.744Z,0
2017-06-15T01:16:28.736Z,0
2017-06-15T01:17:28.740Z,0
2017-06-15T01:18:28.738Z,0
2017-06-15T01:19:28.739Z,0
2017-06-15T01:20:28.741Z,0
2017-06-15T01:21:28.745Z,0
2017-06-15T01:22:28.743Z,0
2017-06-15T01:23:28.743Z,0
2017-06-15T01:24:28.746Z,0
2017-06-15T01:25:28.746Z,0
2017-06-15T01:26:28.762Z,0
2017-06-15T01:27:28.726Z,0
2017-06-15T01:28:28.747Z,0
2017-06-15T01:29:28.784Z,0
2017-06-15T01:30:28.745Z,0
2017-06-15T01:31:28.770Z,0
2017-06-15T01:32:28.781Z,0
2017-06-15T01:33:28.774Z,0
2017-06-15T01:34:28.682Z,0
2017-06-15T01:35:28.767Z,0
2017-06-15T01:36:28.681Z,0
2017-06-15T01:37:28.767Z,0
2017-06-15T01:38:28.708Z,0
2017-06-15T01:39:28.765Z,0
2017-06-15T01:40:28.740Z,0
2017-06-15T01:41:28.772Z,0
2017-06-15T01:42:28.780Z,0
2017-06-15T01:43:28.769Z,0
2017-06-15T01:44:28.774Z,0
2017-06-15T01:45:28.762Z,0
2017-06-15T01:46:28.743Z,0
2017-06-15T01:47:28.827Z,0
2017-06-15T01:48:28.765Z,0
2017-06-15T01:49:28.772Z,0
2017-06-15T01:50:28.709Z,0
2017-06-15T01:51:28.753Z,0
2017-06-15T01:52:28.692Z,0
2017-06-15T01:53:28.787Z,0
2017-06-15T01:54:28.772Z,0
2017-06-15T01:55:28.750Z,0
2017-06-15T01:56:28.718Z,0
2017-06-15T01:57:28.687Z,0
2017-06-15T01:58:28.784Z,0
2017-06-15T01:59:28.691Z,0
2017-06-15T02:00:28.720Z,0
2017-06-15T02:01:28.788Z,0
2017-06-15T02:02:28.719Z,0
2017-06-15T02:03:28.719Z,0
2017-06-15T02:04:28.719Z,0
2017-06-15T02:05:28.696Z,0
2017-06-15T02:06:28.701Z,0
2017-06-15T02:07:28.768Z,0
2017-06-15T02:08:28.793Z,0
2017-06-15T02:09:28.772Z,4
2017-06-15T02:10:28.771Z,4
2017-06-15T02:11:28.769Z,4
2017-06-15T02:12:28.772Z,4
2017-06-15T02:13:28.849Z,0
2017-06-15T02:14:28.770Z,4
2017-06-15T02:15:28.770Z,4
2017-06-15T02:16:28.797Z,4
2017-06-15T02:17:28.725Z,8
2017-06-15T02:18:28.706Z,4
2017-06-15T02:19:28.785Z,4
2017-06-15T02:20:28.794Z,8
2017-06-15T02:21:28.787Z,8
2017-06-15T02:22:28.797Z,8
2017-06-15T02:23:28.800Z,12
2017-06-15T02:24:29.000Z,12
2017-06-15T02:25:28.784Z,16
2017-06-15T02:26:28.734Z,16
2017-06-15T02:27:28.694Z,16
2017-06-15T02:28:28.681Z,16
2017-06-15T02:29:28.679Z,20
2017-06-15T02:30:28.771Z,24
2017-06-15T02:31:28.663Z,28
2017-06-15T02:32:28.792Z,32
2017-06-15T02:33:28.773Z,36
2017-06-15T02:34:28.680Z,40
2017-06-15T02:35:28.774Z,48
2017-06-15T02:36:28.805Z,52
2017-06-15T02:37:28.714Z,56
2017-06-15T02:38:28.722Z,64
2017-06-15T02:39:28.810Z,72
2017-06-15T02:40:28.771Z,80
2017-06-15T02:41:28.717Z,92
2017-06-15T02:42:28.724Z,104
2017-06-15T02:43:28.797Z,116
2017-06-15T02:44:28.802Z,132
2017-06-15T02:45:28.794Z,148
2017-06-15T02:46:28.799Z,164
2017-06-15T02:47:28.813Z,184
2017-06-15T02:48:28.803Z,204
2017-06-15T02:49:28.779Z,228
2017-06-15T02:50:28.808Z,248
2017-06-15T02:51:28.773Z,276
2017-06-15T02:52:28.810Z,304
2017-06-15T02:53:28.816Z,332
2017-06-15T02:54:28.797Z,360
2017-06-15T02:55:28.833Z,392
2017-06-15T02:56:28.773Z,416
2017-06-15T02:57:28.727Z,448
2017-06-15T02:58:28.812Z,484
2017-06-15T02:59:28.807Z,520
2017-06-15T03:00:28.783Z,568
2017-06-15T03:01:28.804Z,616
2017-06-15T03:02:28.727Z,672
2017-06-15T03:03:28.784Z,732
2017-06-15T03:04:28.814Z,796
2017-06-15T03:05:28.735Z,868
2017-06-15T03:06:28.815Z,932
2017-06-15T03:07:28.804Z,1012
2017-06-15T03:08:28.804Z,1104
2017-06-15T03:09:28.802Z,1200
2017-06-15T03:10:28.804Z,1300
2017-06-15T03:11:28.806Z,1400
2017-06-15T03:12:28.806Z,1496
2017-06-15T03:13:28.804Z,1588
2017-06-15T03:14:28.805Z,1692
2017-06-15T03:15:28.805Z,1784
2017-06-15T03:16:28.791Z,1888
2017-06-15T03:17:28.816Z,2008
2017-06-15T03:18:28.794Z,2120
2017-06-15T03:19:28.792Z,2228
2017-06-15T03:20:28.894Z,2332
2017-06-15T03:21:28.793Z,2444
2017-06-15T03:22:28.792Z,2556
2017-06-15T03:23:28.794Z,2672
2017-06-15T03:24:28.797Z,2780
2017-06-15T03:25:28.793Z,2884
2017-06-15T03:26:28.825Z,2976
2017-06-15T03:27:28.824Z,3052
2017-06-15T03:28:28.820Z,3144
2017-06-15T03:29:28.830Z,3260
2017-06-15T03:30:28.746Z,3384
2017-06-15T03:31:28.789Z,3540
2017-06-15T03:32:28.932Z,3676
2017-06-15T03:33:28.812Z,3808
2017-06-15T03:34:28.813Z,3928
2017-06-15T03:35:28.830Z,4036
2017-06-15T03:36:28.829Z,4132
2017-06-15T03:37:28.809Z,4252
2017-06-15T03:38:28.836Z,4388
2017-06-15T03:39:28.826Z,4512
2017-06-15T03:40:28.813Z,4648
2017-06-15T03:41:28.750Z,4804
2017-06-15T03:42:28.834Z,4992
2017-06-15T03:43:28.744Z,5200
2017-06-15T03:44:28.834Z,5376
2017-06-15T03:45:28.745Z,5552
2017-06-15T03:46:28.805Z,5664
2017-06-15T03:47:28.803Z,5776
2017-06-15T03:48:28.803Z,5860
2017-06-15T03:49:28.811Z,5948
2017-06-15T03:50:28.805Z,6024
2017-06-15T03:51:28.805Z,6084
2017-06-15T03:52:28.808Z,6168
2017-06-15T03:53:28.810Z,6240
2017-06-15T03:54:28.908Z,6316
2017-06-15T03:55:28.808Z,6416
2017-06-15T03:56:28.809Z,6520
2017-06-15T03:57:28.810Z,6636
2017-06-15T03:58:28.811Z,6784
2017-06-15T03:59:28.811Z,6932
2017-06-15T04:00:28.812Z,7064
2017-06-15T04:01:28.826Z,7184
2017-06-15T04:02:28.814Z,7332
2017-06-15T04:03:28.841Z,7484
2017-06-15T04:04:28.851Z,7604
2017-06-15T04:05:28.817Z,7692
2017-06-15T04:06:28.789Z,7776
2017-06-15T04:07:28.852Z,7844
2017-06-15T04:08:28.811Z,7896
2017-06-15T04:09:28.848Z,7940
2017-06-15T04:10:28.768Z,7964
2017-06-15T04:11:28.772Z,8000
2017-06-15T04:12:28.830Z,8016
2017-06-15T04:13:28.852Z,8004
2017-06-15T04:14:28.771Z,7984
2017-06-15T04:15:28.767Z,7972
2017-06-15T04:16:28.838Z,7944
2017-06-15T04:17:28.834Z,7880
2017-06-15T04:18:28.832Z,7812
2017-06-15T04:19:28.836Z,7744
2017-06-15T04:20:28.836Z,7668
2017-06-15T04:21:28.840Z,7660
2017-06-15T04:22:28.838Z,7720
2017-06-15T04:23:28.838Z,7816
2017-06-15T04:24:28.838Z,7980
2017-06-15T04:25:28.842Z,8188
2017-06-15T04:26:28.841Z,8348
2017-06-15T04:27:28.841Z,8496
2017-06-15T04:28:28.845Z,8660
2017-06-15T04:29:28.842Z,8828
2017-06-15T04:30:28.842Z,9068
2017-06-15T04:31:28.841Z,9296
2017-06-15T04:32:28.842Z,9532
2017-06-15T04:33:28.840Z,9740
2017-06-15T04:34:28.766Z,9896
2017-06-15T04:35:28.840Z,10032
2017-06-15T04:36:28.843Z,10124
2017-06-15T04:37:28.833Z,10232
2017-06-15T04:38:28.837Z,10348
2017-06-15T04:39:28.834Z,10528
2017-06-15T04:40:28.837Z,10624
2017-06-15T04:41:28.835Z,10732
2017-06-15T04:42:28.839Z,10832
2017-06-15T04:43:28.837Z,10984
2017-06-15T04:44:28.836Z,11172
2017-06-15T04:45:28.838Z,11408
2017-06-15T04:46:28.941Z,11608
2017-06-15T04:47:28.849Z,11740
2017-06-15T04:48:28.855Z,11920
2017-06-15T04:49:28.852Z,12148
2017-06-15T04:50:28.958Z,12316
2017-06-15T04:51:28.961Z,12480
2017-06-15T04:52:28.855Z,12704
2017-06-15T04:53:28.861Z,12872
2017-06-15T04:54:28.799Z,13032
2017-06-15T04:55:28.858Z,13240
2017-06-15T04:56:28.858Z,13520
2017-06-15T04:57:28.856Z,13748
2017-06-15T04:58:28.875Z,13892
2017-06-15T04:59:28.869Z,14156
2017-06-15T05:00:28.788Z,14472
2017-06-15T05:01:28.977Z,14688
2017-06-15T05:02:28.879Z,14780
2017-06-15T05:03:28.795Z,15084
2017-06-15T05:04:28.873Z,15344
2017-06-15T05:05:28.888Z,15500
2017-06-15T05:06:28.879Z,15528
2017-06-15T05:07:28.775Z,15732
2017-06-15T05:08:28.825Z,16088
2017-06-15T05:09:28.788Z,16232
2017-06-15T05:10:28.791Z,16332
2017-06-15T05:11:28.785Z,16528
2017-06-15T05:12:28.787Z,16784
2017-06-15T05:13:28.827Z,17064
2017-06-15T05:14:28.795Z,17348
2017-06-15T05:15:28.839Z,17628
2017-06-15T05:16:28.778Z,17764
2017-06-15T05:17:28.893Z,17904
2017-06-15T05:18:28.827Z,18052
2017-06-15T05:19:28.836Z,18240
2017-06-15T05:20:28.792Z,18324
2017-06-15T05:21:28.783Z,18728
2017-06-15T05:22:28.875Z,18996
2017-06-15T05:23:28.807Z,19184
2017-06-15T05:24:28.791Z,19324
2017-06-15T05:25:28.800Z,19472
2017-06-15T05:26:28.832Z,19512
2017-06-15T05:27:28.813Z,19672
2017-06-15T05:28:28.892Z,19792
2017-06-15T05:29:28.809Z,19944
2017-06-15T05:30:28.869Z,20020
2017-06-15T05:31:28.853Z,20040
2017-06-15T05:32:28.853Z,20168
2017-06-15T05:33:28.887Z,20308
2017-06-15T05:34:28.904Z,20328
2017-06-15T05:35:28.820Z,20304
2017-06-15T05:36:28.896Z,20516
2017-06-15T05:37:28.898Z,20544
2017-06-15T05:38:28.899Z,20692
2017-06-15T05:39:28.893Z,21072
2017-06-15T05:40:28.878Z,21696
2017-06-15T05:41:28.897Z,22048
2017-06-15T05:42:28.808Z,23232
2017-06-15T05:43:28.811Z,40256
2017-06-15T05:44:28.861Z,68576
2017-06-15T05:45:28.898Z,70848
2017-06-15T05:46:28.817Z,47360
2017-06-15T05:47:28.874Z,40832
2017-06-15T05:48:28.873Z,48928
2017-06-15T05:49:28.872Z,39616
2017-06-15T05:50:28.875Z,33152
2017-06-15T05:51:28.872Z,28608
2017-06-15T05:52:28.878Z,27552
2017-06-15T05:53:28.873Z,27392
2017-06-15T05:54:28.880Z,29728
2017-06-15T05:55:28.877Z,30176
2017-06-15T05:56:28.876Z,30016
2017-06-15T05:57:28.821Z,29472
2017-06-15T05:58:28.907Z,30304
2017-06-15T05:59:28.909Z,32480
2017-06-15T06:00:28.913Z,35296
2017-06-15T06:01:28.825Z,48000
2017-06-15T06:02:28.912Z,47520
2017-06-15T06:03:28.903Z,47680
2017-06-15T06:04:28.914Z,47584
2017-06-15T06:05:28.968Z,46720
2017-06-15T06:06:28.839Z,47712
2017-06-15T06:07:28.875Z,41920
2017-06-15T06:08:28.875Z,52800
2017-06-15T06:09:28.890Z,53632
2017-06-15T06:10:28.917Z,58912
2017-06-15T06:11:28.828Z,56768
2017-06-15T06:12:28.894Z,47904
2017-06-15T06:13:28.917Z,51584
2017-06-15T06:14:28.916Z,50912
2017-06-15T06:15:28.941Z,48960
2017-06-15T06:16:28.914Z,45120
2017-06-15T06:17:28.837Z,45248
2017-06-15T06:18:28.914Z,44768
2017-06-15T06:19:28.837Z,47552
2017-06-15T06:20:28.931Z,48768
2017-06-15T06:21:28.918Z,50176
2017-06-15T06:22:28.921Z,49184
2017-06-15T06:23:28.900Z,51680
2017-06-15T06:24:28.842Z,50560
2017-06-15T06:25:28.931Z,47072
2017-06-15T06:26:28.928Z,44736
2017-06-15T06:27:28.925Z,49536
2017-06-15T06:28:28.840Z,57056
2017-06-15T06:29:28.923Z,58784
2017-06-15T06:30:28.931Z,62176
2017-06-15T06:31:28.934Z,61184
2017-06-15T06:32:28.853Z,62464
2017-06-15T06:33:28.923Z,63008
2017-06-15T06:34:28.937Z,58112
2017-06-15T06:35:28.847Z,57152
2017-06-15T06:36:28.842Z,48256
2017-06-15T06:37:28.923Z,58400
2017-06-15T06:38:28.927Z,61920
2017-06-15T06:39:28.930Z,66336
2017-06-15T06:40:28.926Z,67680
2017-06-15T06:41:28.934Z,63904
2017-06-15T06:42:28.929Z,64864
2017-06-15T06:43:28.939Z,68064
2017-06-15T06:44:28.896Z,69760
2017-06-15T06:45:28.934Z,72256
2017-06-15T06:46:28.934Z,73088
2017-06-15T06:47:28.916Z,69408
2017-06-15T06:48:29.015Z,80064
2017-06-15T06:49:28.914Z,78400
2017-06-15T06:50:28.893Z,74400
2017-06-15T06:51:28.917Z,74784
2017-06-15T06:52:28.918Z,71520
2017-06-15T06:53:29.005Z,69920
2017-06-15T06:54:28.917Z,73440
2017-06-15T06:55:28.919Z,72768
2017-06-15T06:56:28.919Z,72960
2017-06-15T06:57:28.840Z,71744
2017-06-15T06:58:28.947Z,68928
2017-06-15T06:59:28.946Z,63616
2017-06-15T07:00:28.833Z,62752
2017-06-15T07:01:28.899Z,62816
2017-06-15T07:02:28.898Z,61376
2017-06-15T07:03:28.903Z,62304
2017-06-15T07:04:28.830Z,63456
2017-06-15T07:05:28.893Z,71328
2017-06-15T07:06:28.838Z,69120
2017-06-15T07:07:28.923Z,83328
2017-06-15T07:08:28.925Z,89184
2017-06-15T07:09:28.923Z,92832
2017-06-15T07:10:28.926Z,88256
2017-06-15T07:11:28.932Z,79744
2017-06-15T07:12:29.010Z,77312
2017-06-15T07:13:28.933Z,79968
2017-06-15T07:14:28.932Z,73088
2017-06-15T07:15:28.957Z,74720
2017-06-15T07:16:28.928Z,71136
2017-06-15T07:17:28.936Z,72224
2017-06-15T07:18:28.933Z,81536
2017-06-15T07:19:28.930Z,80128
2017-06-15T07:20:28.932Z,89952
2017-06-15T07:21:29.036Z,95776
2017-06-15T07:22:28.937Z,99520
2017-06-15T07:23:28.937Z,95328
2017-06-15T07:24:28.934Z,89760
2017-06-15T07:25:28.939Z,83904
2017-06-15T07:26:28.938Z,81696
2017-06-15T07:27:28.959Z,77824
2017-06-15T07:28:28.934Z,75968
2017-06-15T07:29:28.956Z,77856
2017-06-15T07:30:28.949Z,79552
2017-06-15T07:31:28.955Z,84064
2017-06-15T07:32:28.958Z,87456
2017-06-15T07:33:28.973Z,90080
2017-06-15T07:34:28.880Z,92448
2017-06-15T07:35:28.919Z,95776
2017-06-15T07:36:28.960Z,98016
2017-06-15T07:37:28.883Z,84320
2017-06-15T07:38:28.880Z,100320
2017-06-15T07:39:28.960Z,90400
2017-06-15T07:40:28.958Z,82304
2017-06-15T07:41:28.885Z,86432
2017-06-15T07:42:28.956Z,83232
2017-06-15T07:43:28.963Z,86272
2017-06-15T07:44:28.976Z,77760
2017-06-15T07:45:28.973Z,88032
2017-06-15T07:46:28.968Z,89728
2017-06-15T07:47:28.950Z,102688
2017-06-15T07:48:28.950Z,106720
2017-06-15T07:49:28.950Z,111008
2017-06-15T07:50:28.950Z,97920
2017-06-15T07:51:28.955Z,100896
2017-06-15T07:52:28.951Z,97696
2017-06-15T07:53:29.055Z,93952
2017-06-15T07:54:28.951Z,89888
2017-06-15T07:55:29.034Z,93344
2017-06-15T07:56:28.952Z,91936
2017-06-15T07:57:28.955Z,95552
2017-06-15T07:58:28.940Z,92640
2017-06-15T07:59:28.942Z,91328
2017-06-15T08:00:28.943Z,95296
2017-06-15T08:01:28.946Z,103744
2017-06-15T08:02:28.944Z,108128
2017-06-15T08:03:28.945Z,109728
2017-06-15T08:04:28.946Z,111904
2017-06-15T08:05:28.951Z,113952
2017-06-15T08:06:29.046Z,112224
2017-06-15T08:07:28.976Z,109440
2017-06-15T08:08:29.101Z,103232
2017-06-15T08:09:28.981Z,100864
2017-06-15T08:10:28.901Z,94720
2017-06-15T08:11:28.955Z,91552
2017-06-15T08:12:28.897Z,92768
2017-06-15T08:13:28.896Z,97856
2017-06-15T08:14:28.943Z,106496
2017-06-15T08:15:28.983Z,113952
2017-06-15T08:16:28.979Z,88160
2017-06-15T08:17:28.981Z,83392
2017-06-15T08:18:28.985Z,87328
2017-06-15T08:19:28.908Z,93024
2017-06-15T08:20:28.985Z,107744
2017-06-15T08:21:28.907Z,108384
2017-06-15T08:22:28.950Z,107584
2017-06-15T08:23:28.948Z,108736
2017-06-15T08:24:28.907Z,103648
2017-06-15T08:25:28.904Z,101088
2017-06-15T08:26:28.985Z,99872
2017-06-15T08:27:28.983Z,101504
2017-06-15T08:28:28.971Z,97888
2017-06-15T08:29:28.970Z,97984
2017-06-15T08:30:28.973Z,100480
2017-06-15T08:31:28.967Z,95968
2017-06-15T08:32:28.975Z,93920
2017-06-15T08:33:28.973Z,94464
2017-06-15T08:34:28.978Z,95776
2017-06-15T08:35:28.975Z,93824
2017-06-15T08:36:28.977Z,102752
2017-06-15T08:37:28.986Z,103584
2017-06-15T08:38:28.975Z,101600
2017-06-15T08:39:28.915Z,98656
2017-06-15T08:40:28.916Z,98368
2017-06-15T08:41:28.912Z,95136
2017-06-15T08:42:29.002Z,90560
2017-06-15T08:43:29.003Z,89056
2017-06-15T08:44:28.989Z,95392
2017-06-15T08:45:28.994Z,99840
2017-06-15T08:46:28.918Z,117056
2017-06-15T08:47:29.003Z,118560
2017-06-15T08:48:28.906Z,113280
2017-06-15T08:49:28.893Z,106624
2017-06-15T08:50:28.946Z,105152
2017-06-15T08:51:28.990Z,105472
2017-06-15T08:52:28.998Z,96448
2017-06-15T08:53:28.902Z,106720
2017-06-15T08:54:28.885Z,114464
2017-06-15T08:55:28.910Z,112800
2017-06-15T08:56:28.987Z,119712
2017-06-15T08:57:28.917Z,117024
2017-06-15T08:58:28.987Z,120448
2017-06-15T08:59:28.990Z,122496
2017-06-15T09:00:29.004Z,118432
2017-06-15T09:01:28.991Z,117696
2017-06-15T09:02:28.995Z,117280
2017-06-15T09:03:28.987Z,111072
2017-06-15T09:04:28.972Z,104544
2017-06-15T09:05:28.981Z,104800
2017-06-15T09:06:29.006Z,101664
2017-06-15T09:07:28.991Z,98080
2017-06-15T09:08:28.997Z,104320
2017-06-15T09:09:28.994Z,110336
2017-06-15T09:10:28.991Z,113824
2017-06-15T09:11:28.998Z,116768
2017-06-15T09:12:28.993Z,98528
2017-06-15T09:13:28.995Z,105248
2017-06-15T09:14:28.997Z,119072
2017-06-15T09:15:28.999Z,118208
2017-06-15T09:16:29.000Z,111680
2017-06-15T09:17:28.994Z,113056
2017-06-15T09:18:28.999Z,107392
2017-06-15T09:19:28.994Z,110400
2017-06-15T09:20:28.995Z,109920
2017-06-15T09:21:29.000Z,115072
2017-06-15T09:22:28.995Z,116192
2017-06-15T09:23:28.920Z,112000
2017-06-15T09:24:28.920Z,108608
2017-06-15T09:25:28.905Z,113632
2017-06-15T09:26:28.922Z,113056
2017-06-15T09:27:28.921Z,111968
2017-06-15T09:28:28.919Z,114432
2017-06-15T09:29:28.904Z,114496
2017-06-15T09:30:28.923Z,110784
2017-06-15T09:31:28.850Z,111584
2017-06-15T09:32:28.922Z,114688
2017-06-15T09:33:28.980Z,115552
2017-06-15T09:34:29.007Z,114848
2017-06-15T09:35:28.920Z,114240
2017-06-15T09:36:29.008Z,113856
2017-06-15T09:37:29.013Z,109280
2017-06-15T09:38:29.012Z,104800
2017-06-15T09:39:29.037Z,103488
2017-06-15T09:40:29.011Z,103392
2017-06-15T09:41:29.037Z,102144
2017-06-15T09:42:29.013Z,110560
2017-06-15T09:43:29.013Z,113120
2017-06-15T09:44:29.012Z,118400
2017-06-15T09:45:29.015Z,120064
2017-06-15T09:46:29.012Z,122784
2017-06-15T09:47:29.014Z,117472
2017-06-15T09:48:29.015Z,114336
2017-06-15T09:49:29.012Z,95648
2017-06-15T09:50:29.016Z,95360
2017-06-15T09:51:29.014Z,90272
2017-06-15T09:52:29.012Z,92896
2017-06-15T09:53:29.012Z,109312
2017-06-15T09:54:29.019Z,115264
2017-06-15T09:55:29.019Z,114048
2017-06-15T09:56:29.017Z,118976
2017-06-15T09:57:29.025Z,119264
2017-06-15T09:58:29.020Z,116768
2017-06-15T09:59:29.021Z,120096
2017-06-15T10:00:29.021Z,120192
2017-06-15T10:01:29.021Z,120352
2017-06-15T10:02:29.032Z,120576
2017-06-15T10:03:29.021Z,121696
2017-06-15T10:04:29.042Z,125952
2017-06-15T10:05:29.043Z,126080
2017-06-15T10:06:29.043Z,124576
2017-06-15T10:07:29.051Z,122592
2017-06-15T10:08:28.959Z,118624
2017-06-15T10:09:29.097Z,115296
2017-06-15T10:10:29.040Z,112288
2017-06-15T10:11:29.054Z,112672
2017-06-15T10:12:29.053Z,112160
2017-06-15T10:13:29.057Z,110016
2017-06-15T10:14:29.013Z,109504
2017-06-15T10:15:28.959Z,112000
2017-06-15T10:16:29.008Z,116608
2017-06-15T10:17:29.008Z,119904
2017-06-15T10:18:28.960Z,122496
2017-06-15T10:19:29.052Z,123936
2017-06-15T10:20:29.153Z,123200
2017-06-15T10:21:29.056Z,121568
2017-06-15T10:22:29.048Z,119552
2017-06-15T10:23:29.035Z,124768
2017-06-15T10:24:29.034Z,120448
2017-06-15T10:25:28.997Z,132544
2017-06-15T10:26:29.031Z,133632
2017-06-15T10:27:29.055Z,134240
2017-06-15T10:28:28.970Z,133600
2017-06-15T10:29:29.057Z,136576
2017-06-15T10:30:28.977Z,137760
2017-06-15T10:31:28.973Z,136672
2017-06-15T10:32:28.967Z,135072
2017-06-15T10:33:29.016Z,130848
2017-06-15T10:34:29.030Z,124032
2017-06-15T10:35:29.053Z,118592
2017-06-15T10:36:29.026Z,123232
2017-06-15T10:37:29.028Z,129120
2017-06-15T10:38:29.029Z,129824
2017-06-15T10:39:29.035Z,115424
2017-06-15T10:40:29.033Z,113408
2017-06-15T10:41:29.031Z,113792
2017-06-15T10:42:29.133Z,115104
2017-06-15T10:43:29.033Z,125984
2017-06-15T10:44:29.032Z,134176
2017-06-15T10:45:29.036Z,139136
2017-06-15T10:46:29.032Z,138272
2017-06-15T10:47:29.037Z,143552
2017-06-15T10:48:29.035Z,141280
2017-06-15T10:49:29.036Z,133216
2017-06-15T10:50:29.038Z,124576
2017-06-15T10:51:29.034Z,116992
2017-06-15T10:52:29.042Z,122912
2017-06-15T10:53:29.038Z,130432
2017-06-15T10:54:29.068Z,128128
2017-06-15T10:55:28.989Z,125600
2017-06-15T10:56:29.070Z,130592
2017-06-15T10:57:29.065Z,128352
2017-06-15T10:58:29.076Z,127840
2017-06-15T10:59:29.082Z,128128
2017-06-15T11:00:29.041Z,128128
2017-06-15T11:01:28.982Z,126560
2017-06-15T11:02:28.989Z,129760
2017-06-15T11:03:29.054Z,129088
2017-06-15T11:04:29.059Z,128064
2017-06-15T11:05:29.060Z,127232
2017-06-15T11:06:29.060Z,124704
2017-06-15T11:07:29.061Z,122368
2017-06-15T11:08:29.061Z,121920
2017-06-15T11:09:29.061Z,95008
2017-06-15T11:10:29.059Z,117600
2017-06-15T11:11:29.053Z,115264
2017-06-15T11:12:29.061Z,114304
2017-06-15T11:13:29.061Z,118528
2017-06-15T11:14:29.047Z,118048
2017-06-15T11:15:29.046Z,119488
2017-06-15T11:16:29.048Z,97024
2017-06-15T11:17:29.046Z,94944
2017-06-15T11:18:29.050Z,106016
2017-06-15T11:19:29.047Z,116736
2017-06-15T11:20:29.050Z,109920
2017-06-15T11:21:29.050Z,117280
2017-06-15T11:22:29.052Z,102432
2017-06-15T11:23:29.050Z,79712
2017-06-15T11:24:28.988Z,73408
2017-06-15T11:25:29.027Z,72608
2017-06-15T11:26:29.026Z,80416
2017-06-15T11:27:29.026Z,83360
2017-06-15T11:28:28.996Z,84608
2017-06-15T11:29:28.979Z,105184
2017-06-15T11:30:29.033Z,105056
2017-06-15T11:31:28.996Z,105312
2017-06-15T11:32:29.093Z,106176
2017-06-15T11:33:29.049Z,113408
2017-06-15T11:34:29.008Z,118048
2017-06-15T11:35:29.014Z,118016
2017-06-15T11:36:29.005Z,121056
2017-06-15T11:37:29.049Z,118976
2017-06-15T11:38:29.085Z,114080
2017-06-15T11:39:29.093Z,112096
2017-06-15T11:40:29.100Z,117888
2017-06-15T11:41:29.099Z,120672
2017-06-15T11:42:29.095Z,130464
2017-06-15T11:43:29.067Z,134720
2017-06-15T11:44:29.095Z,134560
2017-06-15T11:45:29.053Z,142464
2017-06-15T11:46:29.057Z,140672
2017-06-15T11:47:29.098Z,140064
2017-06-15T11:48:29.095Z,136640
2017-06-15T11:49:29.015Z,125696
2017-06-15T11:50:29.018Z,124448
2017-06-15T11:51:29.015Z,125504
2017-06-15T11:52:29.077Z,128992
2017-06-15T11:53:29.098Z,128416
2017-06-15T11:54:29.000Z,133696
2017-06-15T11:55:29.043Z,139968
2017-06-15T11:56:29.005Z,139936
2017-06-15T11:57:29.045Z,127456
2017-06-15T11:58:29.005Z,148064
2017-06-15T11:59:29.001Z,108480
2017-06-15T12:00:29.011Z,146688
2017-06-15T12:01:29.047Z,135520
2017-06-15T12:02:29.005Z,135520
2017-06-15T12:03:29.047Z,139168
2017-06-15T12:04:29.103Z,140480
2017-06-15T12:05:29.092Z,115584
2017-06-15T12:06:29.092Z,131968
2017-06-15T12:07:29.089Z,146944
2017-06-15T12:08:29.091Z,138080
2017-06-15T12:09:29.093Z,125504
2017-06-15T12:10:29.093Z,143136
2017-06-15T12:11:29.094Z,154368
2017-06-15T12:12:29.093Z,141664
2017-06-15T12:13:29.096Z,147552
2017-06-15T12:14:29.081Z,161760
2017-06-15T12:15:29.082Z,131072
2017-06-15T12:16:29.086Z,117824
2017-06-15T12:17:29.084Z,142176
2017-06-15T12:18:29.085Z,79328
2017-06-15T12:19:29.085Z,73600
2017-06-15T12:20:29.085Z,66816
2017-06-15T12:21:29.085Z,64992
2017-06-15T12:22:29.088Z,66784
2017-06-15T12:23:29.087Z,61280
2017-06-15T12:24:29.122Z,83520
2017-06-15T12:25:29.094Z,66688
2017-06-15T12:26:29.117Z,59936
2017-06-15T12:27:29.081Z,58048
2017-06-15T12:28:29.117Z,58816
2017-06-15T12:29:29.079Z,56480
2017-06-15T12:30:29.121Z,56320
2017-06-15T12:31:29.120Z,57600
2017-06-15T12:32:29.098Z,62080
2017-06-15T12:33:29.123Z,75840
2017-06-15T12:34:29.031Z,101120
2017-06-15T12:35:29.122Z,62688
2017-06-15T12:36:29.101Z,55936
2017-06-15T12:37:29.036Z,51328
2017-06-15T12:38:29.126Z,48192
2017-06-15T12:39:29.124Z,45472
2017-06-15T12:40:29.047Z,42592
2017-06-15T12:41:29.128Z,40160
2017-06-15T12:42:29.128Z,38560
2017-06-15T12:43:29.093Z,37984
2017-06-15T12:44:29.130Z,38304
2017-06-15T12:45:29.103Z,39648
2017-06-15T12:46:29.098Z,42048
2017-06-15T12:47:29.100Z,45280
2017-06-15T12:48:29.099Z,49152
2017-06-15T12:49:29.102Z,53056
2017-06-15T12:50:29.101Z,56416
2017-06-15T12:51:29.103Z,61344
2017-06-15T12:52:29.097Z,68672
2017-06-15T12:53:29.104Z,66784
2017-06-15T12:54:29.202Z,67232
2017-06-15T12:55:29.138Z,65184
2017-06-15T12:56:29.100Z,63808
2017-06-15T12:57:29.136Z,62304
2017-06-15T12:58:29.137Z,61504
2017-06-15T12:59:29.062Z,60064
2017-06-15T13:00:29.130Z,59200
2017-06-15T13:01:29.058Z,60096
2017-06-15T13:02:29.147Z,58432
2017-06-15T13:03:29.090Z,57152
2017-06-15T13:04:29.131Z,55584
2017-06-15T13:05:29.121Z,52800
2017-06-15T13:06:29.120Z,50304
2017-06-15T13:07:29.226Z,50048
2017-06-15T13:08:29.133Z,51296
2017-06-15T13:09:29.125Z,53760
2017-06-15T13:10:29.126Z,57312